Airport View

Enter ICAO identifier to see the current METAR for that AWOS.

KFNL for example

KGFA 231314Z AUTO 32009G16KT 12SM BKN100 16/13 A3016 RMK AO2 LTG DSNT N

23 Jul 2014 13:56

Other Area AWOS: KGTF - K79S - KHLN - KLWT

TAF AMD KGFA 2313/2417 33012KT 9999 FEW100 QNH3010INS TEMPO 2313/2316 VRB15G25KT VCTS BKN050CB TEMPO 2323/2404 VRB25G35KT 8000 TSRAGR BKN020CB BECMG 2404/2405 23010G20KT 9999 VCTS SCT020CB BKN100 QNH2996INS BECMG 2408/2409 08009KT 9999 NSW FEW080 QNH2988INS BECMG 2410/2411 24015G25KT 9999 SCT050 510009 QNH2995INS BECMG 2416/2417 25025G35KT 9999 FEW120 520009 QNH3008INS TX33/2323Z TN16/2412Z AMD 231310